Time;durP1;ratioP1;P1;durP2;ratioP2;P2;SDS_P1;SDS_P2;PMS_P1;PMS_P2;Temp;Humidity;BMP_temperature;BMP_pressure;BME280_temperature;BME280_humidity;BME280_pressure;Samples;Min_cycle;Max_cycle;Signal;HPM_P1;HPM_P2
2022/10/21 00:01:02;;;;;;;11.43;7.85;;;;;;;4.24;100.00;93961.97;5068040;28;20056;-74
2022/10/21 00:03:28;;;;;;;10.02;7.75;;;;;;;4.22;100.00;93953.72;5068247;28;20049;-74
2022/10/21 00:05:55;;;;;;;11.45;7.97;;;;;;;4.23;100.00;93940.06;5061775;28;20087;-74
2022/10/21 00:08:24;;;;;;;11.00;7.90;;;;;;;4.24;100.00;93951.81;5048290;28;20553;-74
2022/10/21 00:10:52;;;;;;;9.82;7.45;;;;;;;4.22;100.00;93954.50;5048420;28;20037;-74
2022/10/21 00:13:19;;;;;;;12.00;8.13;;;;;;;4.17;100.00;93945.75;5048368;28;20041;-75
2022/10/21 00:15:45;;;;;;;11.70;7.85;;;;;;;4.17;100.00;93945.75;5048504;28;20041;-74
2022/10/21 00:18:12;;;;;;;9.90;7.38;;;;;;;4.17;100.00;93943.97;5065842;28;20457;-74
2022/10/21 00:20:40;;;;;;;10.27;7.32;;;;;;;4.13;100.00;93945.25;5068091;28;20044;-74
2022/10/21 00:23:07;;;;;;;12.52;7.80;;;;;;;4.13;100.00;93947.81;5068379;28;20055;-74
2022/10/21 00:25:35;;;;;;;12.73;8.38;;;;;;;4.10;100.00;93946.34;5068740;28;20040;-74
2022/10/21 00:28:02;;;;;;;11.07;8.15;;;;;;;4.06;100.00;93937.44;5068370;28;20041;-74
2022/10/21 00:30:28;;;;;;;10.18;7.70;;;;;;;4.08;100.00;93938.06;5068600;28;20041;-73
2022/10/21 00:32:55;;;;;;;11.30;7.80;;;;;;;4.04;100.00;93928.34;5068983;28;20094;-74
2022/10/21 00:35:22;;;;;;;10.05;7.47;;;;;;;4.00;100.00;93936.31;5072574;28;20045;-74
2022/10/21 00:37:49;;;;;;;10.52;7.75;;;;;;;3.98;100.00;93935.63;5072363;28;20044;-74
2022/10/21 00:40:15;;;;;;;10.95;7.57;;;;;;;3.94;100.00;93934.34;5072084;28;20049;-73
2022/10/21 00:42:43;;;;;;;9.70;6.90;;;;;;;3.97;100.00;93945.94;5072275;28;20041;-74
2022/10/21 00:45:19;;;;;;;10.27;7.47;;;;;;;3.87;100.00;93944.31;5072388;28;20451;-74
2022/10/21 00:47:49;;;;;;;10.90;7.63;;;;;;;3.81;100.00;93947.47;5071996;28;20041;-74
2022/10/21 00:50:24;;;;;;;9.75;7.57;;;;;;;3.75;100.00;93945.50;5072314;28;20059;-74
2022/10/21 00:52:52;;;;;;;12.02;8.10;;;;;;;3.71;100.00;93932.28;5071649;28;20386;-74
2022/10/21 00:55:20;;;;;;;10.05;8.05;;;;;;;3.59;100.00;93921.59;5072012;28;20044;-74
2022/10/21 00:57:49;;;;;;;12.85;7.93;;;;;;;3.51;100.00;93918.22;5071581;28;20052;-74
2022/10/21 01:00:16;;;;;;;9.43;7.15;;;;;;;3.60;100.00;93933.34;5072012;28;20048;-74
2022/10/21 01:02:45;;;;;;;12.95;8.77;;;;;;;3.64;100.00;93944.00;5070527;28;20052;-74
2022/10/21 01:05:13;;;;;;;10.43;7.82;;;;;;;3.58;100.00;93947.16;5059279;28;20091;-74
2022/10/21 01:07:39;;;;;;;9.05;7.13;;;;;;;3.37;100.00;93911.91;5072082;28;20048;-73
2022/10/21 01:10:07;;;;;;;9.82;7.47;;;;;;;3.56;100.00;93933.81;5071381;28;20094;-73
2022/10/21 01:12:43;;;;;;;10.50;8.02;;;;;;;3.55;100.00;93940.63;5071647;28;20045;-73
2022/10/21 01:15:18;;;;;;;10.82;7.90;;;;;;;3.53;100.00;93939.97;5071505;28;20492;-74
2022/10/21 01:17:53;;;;;;;11.57;7.18;;;;;;;3.56;100.00;93942.22;5071714;28;20459;-73
2022/10/21 01:20:36;;;;;;;10.02;7.43;;;;;;;3.55;100.00;93933.00;5071724;28;20052;-75
2022/10/21 01:23:39;;;;;;;10.35;7.70;;;;;;;3.52;100.00;93935.81;5058846;28;20428;-74
2022/10/21 01:26:41;;;;;;;9.27;7.45;;;;;;;3.53;100.00;93941.72;5071553;28;20455;-73
2022/10/21 01:29:35;;;;;;;10.93;7.88;;;;;;;3.46;100.00;93938.94;5071524;28;20087;-73
2022/10/21 01:32:09;;;;;;;14.57;7.72;;;;;;;3.36;100.00;93939.03;5071635;28;20481;-74
2022/10/21 01:34:42;;;;;;;15.75;11.10;;;;;;;3.38;100.00;93939.69;5071506;28;20141;-73
2022/10/21 01:37:17;;;;;;;11.07;8.40;;;;;;;3.37;100.00;93939.84;5071601;28;20162;-73
2022/10/21 01:39:51;;;;;;;13.13;7.95;;;;;;;3.38;100.00;93941.44;5070954;28;20098;-73
2022/10/21 01:42:27;;;;;;;10.30;7.38;;;;;;;3.32;100.00;93938.53;5071071;28;20048;-73
2022/10/21 01:45:01;;;;;;;10.07;7.65;;;;;;;3.29;100.00;93935.50;5071224;28;20040;-73
2022/10/21 01:47:34;;;;;;;10.25;7.53;;;;;;;3.19;100.00;93925.41;5071618;28;20072;-73
2022/10/21 01:50:04;;;;;;;8.82;7.28;;;;;;;3.30;100.00;93945.53;5070781;28;20098;-73
2022/10/21 01:52:31;;;;;;;8.40;6.95;;;;;;;3.26;100.00;93943.41;5071049;28;20048;-73
2022/10/21 01:55:02;;;;;;;10.23;7.53;;;;;;;3.14;100.00;93943.63;5071215;28;20102;-73
2022/10/21 01:57:35;;;;;;;12.05;8.65;;;;;;;3.11;100.00;93938.84;5062609;28;20053;-73
2022/10/21 02:00:02;;;;;;;10.57;7.75;;;;;;;3.07;100.00;93933.25;5066016;28;20621;-73
2022/10/21 02:02:34;;;;;;;9.75;7.68;;;;;;;3.11;100.00;93940.59;5071021;28;20386;-73
2022/10/21 02:05:07;;;;;;;12.32;8.55;;;;;;;3.10;100.00;93942.31;5071030;28;20048;-73
2022/10/21 02:07:34;;;;;;;10.27;8.05;;;;;;;3.05;100.00;93936.88;5070801;28;20052;-73
2022/10/21 02:10:01;;;;;;;9.98;7.13;;;;;;;3.05;100.00;93934.34;5070806;28;20075;-73
2022/10/21 02:12:30;;;;;;;12.20;7.93;;;;;;;3.05;100.00;93937.69;5070349;28;20138;-73
2022/10/21 02:15:00;;;;;;;11.25;7.75;;;;;;;3.06;100.00;93941.81;5070045;28;20052;-73
2022/10/21 02:17:28;;;;;;;9.88;7.50;;;;;;;3.00;100.00;93932.25;5070404;28;20456;-73
2022/10/21 02:20:01;;;;;;;10.70;7.63;;;;;;;3.14;100.00;93946.16;5070523;28;20048;-73
2022/10/21 02:22:28;;;;;;;10.15;7.57;;;;;;;3.12;100.00;93944.72;5070699;28;20451;-73
2022/10/21 02:24:58;;;;;;;9.13;6.85;;;;;;;3.01;100.00;93943.97;5070216;28;20071;-73
2022/10/21 02:27:25;;;;;;;10.55;7.45;;;;;;;3.03;100.00;93948.91;5070008;28;20048;-73
2022/10/21 02:29:57;;;;;;;9.05;6.88;;;;;;;2.93;100.00;93941.38;5070463;28;20044;-73
2022/10/21 02:32:30;;;;;;;10.40;7.57;;;;;;;2.89;100.00;93940.88;5069905;28;20044;-74
2022/10/21 02:35:13;;;;;;;9.38;7.05;;;;;;;2.83;100.00;93955.88;5070459;28;20044;-73
2022/10/21 02:37:48;;;;;;;10.32;7.38;;;;;;;2.80;100.00;93951.88;5070241;28;20110;-73
2022/10/21 02:40:19;;;;;;;10.03;7.23;;;;;;;2.74;100.00;93947.38;5070400;28;20086;-73
2022/10/21 02:42:51;;;;;;;9.63;6.88;;;;;;;2.78;100.00;93956.31;5069635;28;20060;-73
2022/10/21 02:45:19;;;;;;;10.98;7.03;;;;;;;2.75;100.00;93949.78;5069905;28;20585;-73
2022/10/21 02:47:48;;;;;;;12.55;7.50;;;;;;;2.75;100.00;93946.44;5069733;28;20049;-73
2022/10/21 02:50:17;;;;;;;10.77;7.47;;;;;;;2.73;100.00;93951.63;5069999;28;20049;-73
2022/10/21 02:52:43;;;;;;;10.60;7.80;;;;;;;2.63;100.00;93956.78;5069741;28;20048;-73
2022/10/21 02:55:10;;;;;;;10.90;8.32;;;;;;;2.58;100.00;93964.00;5069639;28;20051;-73
2022/10/21 02:57:37;;;;;;;11.20;8.48;;;;;;;2.45;100.00;93941.50;5069250;28;20094;-73
2022/10/21 03:00:05;;;;;;;12.68;8.48;;;;;;;2.29;100.00;93926.13;5069563;28;20044;-73
2022/10/21 03:02:31;;;;;;;10.23;7.93;;;;;;;2.40;100.00;93944.47;5069320;28;20102;-73
2022/10/21 03:04:58;;;;;;;11.05;8.27;;;;;;;2.43;100.00;93956.09;5069641;28;20052;-73
2022/10/21 03:07:26;;;;;;;11.90;8.50;;;;;;;2.48;100.00;93956.47;5069651;28;20044;-73
2022/10/21 03:09:53;;;;;;;11.98;8.13;;;;;;;2.51;100.00;93966.31;5069301;28;20437;-73
2022/10/21 03:12:20;;;;;;;9.65;7.10;;;;;;;2.54;100.00;93955.91;5069653;28;20048;-73
2022/10/21 03:14:47;;;;;;;10.90;7.53;;;;;;;2.54;100.00;93960.97;5069269;28;20044;-73
2022/10/21 03:17:13;;;;;;;10.15;7.50;;;;;;;2.56;100.00;93960.84;5069409;28;20060;-73
2022/10/21 03:19:40;;;;;;;10.95;7.60;;;;;;;2.54;100.00;93966.03;5069162;28;20564;-73
2022/10/21 03:22:07;;;;;;;9.63;7.68;;;;;;;2.52;100.00;93962.03;5069574;28;20056;-73
2022/10/21 03:24:35;;;;;;;10.20;7.63;;;;;;;2.51;100.00;93963.78;5069496;28;20040;-73
2022/10/21 03:27:02;;;;;;;9.00;7.28;;;;;;;2.46;100.00;93967.69;5069157;28;20040;-73
2022/10/21 03:29:28;;;;;;;9.68;6.85;;;;;;;2.45;100.00;93971.94;5069026;28;20496;-73
2022/10/21 03:31:55;;;;;;;11.27;8.52;;;;;;;2.33;100.00;93953.59;5069093;28;20040;-73
2022/10/21 03:34:22;;;;;;;11.85;10.43;;;;;;;2.41;100.00;93968.13;5069075;28;20074;-73
2022/10/21 03:36:48;;;;;;;11.35;8.18;;;;;;;2.46;100.00;93971.00;5069385;28;20041;-73
2022/10/21 03:39:15;;;;;;;9.65;7.82;;;;;;;2.48;100.00;93973.41;5069340;28;20110;-73
2022/10/21 03:41:43;;;;;;;11.50;8.90;;;;;;;2.47;100.00;93974.34;5069228;28;20048;-73
2022/10/21 03:44:10;;;;;;;13.30;9.02;;;;;;;2.46;100.00;93976.06;5069017;28;20048;-73
2022/10/21 03:46:37;;;;;;;13.55;9.40;;;;;;;2.43;100.00;93973.03;5068989;28;20048;-73
2022/10/21 03:49:03;;;;;;;14.48;10.60;;;;;;;2.36;100.00;93971.06;5068897;28;20110;-73
2022/10/21 03:51:30;;;;;;;15.70;11.75;;;;;;;2.34;100.00;93977.19;5069195;28;20067;-73
2022/10/21 03:53:57;;;;;;;22.48;16.63;;;;;;;2.24;100.00;93974.72;5068913;28;20094;-72
2022/10/21 03:56:24;;;;;;;17.58;13.35;;;;;;;2.06;100.00;93962.78;5068658;28;20048;-73
2022/10/21 03:58:52;;;;;;;19.23;13.48;;;;;;;2.18;100.00;93977.81;5068997;28;20043;-73
2022/10/21 04:01:18;;;;;;;14.40;12.25;;;;;;;2.17;100.00;93971.91;5068954;28;20056;-73
2022/10/21 04:03:45;;;;;;;14.82;11.52;;;;;;;2.22;100.00;93979.13;5069139;28;20051;-73
2022/10/21 04:06:12;;;;;;;15.85;12.07;;;;;;;2.21;100.00;93978.31;5069017;28;20496;-72
2022/10/21 04:08:39;;;;;;;12.85;9.27;;;;;;;2.17;100.00;93958.47;5070728;28;20098;-73
2022/10/21 04:11:05;;;;;;;12.70;9.90;;;;;;;2.22;100.00;93969.00;5073098;28;20045;-73
2022/10/21 04:13:32;;;;;;;11.48;9.02;;;;;;;2.20;100.00;93973.38;5072715;28;20049;-74
2022/10/21 04:16:02;;;;;;;13.38;9.63;;;;;;;2.25;100.00;93971.22;5073063;28;20048;-73
2022/10/21 04:18:28;;;;;;;12.38;8.65;;;;;;;2.20;100.00;93969.13;5072743;28;20052;-73
2022/10/21 04:20:55;;;;;;;14.75;9.77;;;;;;;2.17;100.00;93971.16;5072474;28;20515;-73
2022/10/21 04:23:22;;;;;;;14.48;9.90;;;;;;;2.13;100.00;93963.03;5072958;28;20049;-73
2022/10/21 04:25:49;;;;;;;13.75;9.43;;;;;;;2.12;100.00;93964.75;5072651;28;20090;-73
2022/10/21 04:28:16;;;;;;;16.50;10.40;;;;;;;2.13;100.00;93965.56;5072480;28;20044;-73
2022/10/21 04:30:42;;;;;;;15.90;10.48;;;;;;;2.09;100.00;93964.22;5072594;28;20113;-73
2022/10/21 04:33:10;;;;;;;17.25;10.20;;;;;;;2.09;100.00;93954.09;5072674;28;20114;-73
2022/10/21 04:35:39;;;;;;;15.05;10.50;;;;;;;2.09;100.00;93954.09;5059868;28;20094;-73
2022/10/21 04:38:06;;;;;;;16.73;11.77;;;;;;;2.05;100.00;93965.44;5071521;28;20041;-73
2022/10/21 04:40:33;;;;;;;16.77;11.80;;;;;;;2.03;100.00;93964.78;5072276;28;20083;-73
2022/10/21 04:42:59;;;;;;;17.88;11.77;;;;;;;2.02;100.00;93969.03;5070508;28;20048;-73
2022/10/21 04:45:26;;;;;;;17.30;11.57;;;;;;;2.02;100.00;93966.50;5065112;28;20044;-73
2022/10/21 04:47:53;;;;;;;18.13;11.63;;;;;;;1.94;100.00;93964.66;5063585;28;20115;-73
2022/10/21 04:50:21;;;;;;;14.50;10.75;;;;;;;1.96;100.00;93972.94;5061241;28;20098;-73
2022/10/21 04:52:48;;;;;;;16.42;10.25;;;;;;;2.02;100.00;93973.28;5061259;28;20048;-73
2022/10/21 04:55:15;;;;;;;14.63;10.98;;;;;;;2.01;100.00;93969.97;5062683;28;20041;-73
2022/10/21 04:57:41;;;;;;;16.20;11.13;;;;;;;2.09;100.00;93971.84;5061950;28;20049;-73
2022/10/21 05:00:10;;;;;;;15.18;10.50;;;;;;;2.04;100.00;93973.97;5061253;28;20045;-73
2022/10/21 05:02:36;;;;;;;15.43;11.07;;;;;;;2.05;100.00;93980.63;5060385;28;20060;-73
2022/10/21 05:05:03;;;;;;;14.15;10.13;;;;;;;2.03;100.00;93968.09;5061161;28;20488;-73
2022/10/21 05:07:31;;;;;;;14.43;9.98;;;;;;;2.10;100.00;93969.16;5059405;28;20110;-73
2022/10/21 05:09:58;;;;;;;19.92;11.25;;;;;;;2.11;100.00;93975.81;5061194;28;20054;-73
2022/10/21 05:12:25;;;;;;;18.83;10.18;;;;;;;2.14;100.00;93977.28;5061079;28;20045;-73
2022/10/21 05:14:51;;;;;;;15.82;10.30;;;;;;;2.10;100.00;93974.22;5050822;28;20045;-73
2022/10/21 05:17:18;;;;;;;14.00;10.15;;;;;;;2.13;100.00;93976.47;5056389;28;21149;-72
2022/10/21 05:19:45;;;;;;;15.00;11.27;;;;;;;2.20;100.00;93980.97;5069905;28;20153;-73
2022/10/21 05:22:12;;;;;;;19.05;12.75;;;;;;;2.19;100.00;93982.75;5070563;28;20048;-73
2022/10/21 05:24:40;;;;;;;17.75;13.20;;;;;;;2.12;100.00;93974.06;5070687;28;20094;-73
2022/10/21 05:27:07;;;;;;;20.60;13.00;;;;;;;2.13;100.00;93983.28;5070353;28;20098;-73
2022/10/21 05:29:33;;;;;;;19.92;13.95;;;;;;;2.12;100.00;93977.41;5070148;28;20489;-73
2022/10/21 05:32:00;;;;;;;24.95;13.80;;;;;;;2.21;100.00;93991.00;5070215;28;20094;-74
2022/10/21 05:34:27;;;;;;;19.73;13.48;;;;;;;2.28;100.00;93983.63;5069911;28;20090;-73
2022/10/21 05:36:54;;;;;;;20.88;13.55;;;;;;;2.38;100.00;93986.94;5070484;28;20098;-73
2022/10/21 05:39:20;;;;;;;20.33;13.10;;;;;;;2.39;100.00;93995.34;5070024;28;20090;-73
2022/10/21 05:41:48;;;;;;;19.40;12.52;;;;;;;2.44;100.00;93988.09;5069876;28;20121;-73
2022/10/21 05:44:15;;;;;;;22.90;14.57;;;;;;;2.46;100.00;93998.13;5070027;28;20102;-74
2022/10/21 05:46:42;;;;;;;22.50;13.75;;;;;;;2.50;100.00;93997.69;5070031;28;20492;-74
2022/10/21 05:49:09;;;;;;;21.88;14.55;;;;;;;2.51;100.00;94001.81;5069845;28;20189;-75
2022/10/21 05:51:36;;;;;;;26.05;18.10;;;;;;;2.45;100.00;93999.84;5070106;28;20086;-75
2022/10/21 05:54:04;;;;;;;24.83;18.52;;;;;;;2.53;100.00;94004.22;5069881;28;20408;-75
2022/10/21 05:56:31;;;;;;;25.85;18.80;;;;;;;2.54;100.00;93993.94;5069705;28;20493;-75
2022/10/21 05:58:59;;;;;;;20.65;15.80;;;;;;;2.64;100.00;94003.25;5070027;28;20802;-75
2022/10/21 06:01:26;;;;;;;25.95;16.75;;;;;;;2.75;100.00;94009.84;5062783;28;183528;-75
2022/10/21 06:03:53;;;;;;;22.88;15.95;;;;;;;2.69;100.00;94005.34;5070257;28;20045;-75
2022/10/21 06:06:19;;;;;;;20.23;14.25;;;;;;;2.64;100.00;94014.19;5070845;28;20064;-74
2022/10/21 06:08:46;;;;;;;24.58;16.30;;;;;;;2.65;100.00;94018.31;5067446;28;20040;-74
2022/10/21 06:11:15;;;;;;;21.05;15.02;;;;;;;2.57;100.00;94012.34;5068514;28;20056;-75
2022/10/21 06:13:42;;;;;;;21.70;15.63;;;;;;;2.52;100.00;94018.66;5070342;28;20099;-74
2022/10/21 06:16:12;;;;;;;20.02;15.10;;;;;;;2.56;100.00;94025.97;5070196;28;20048;-75
2022/10/21 06:18:39;;;;;;;21.95;15.70;;;;;;;2.69;100.00;94033.25;5070199;28;20475;-74
2022/10/21 06:21:06;;;;;;;21.77;16.20;;;;;;;2.83;100.00;94029.44;5070229;28;20118;-74
2022/10/21 06:23:33;;;;;;;18.25;14.02;;;;;;;2.93;100.00;94025.91;5070400;28;20048;-74
2022/10/21 06:26:02;;;;;;;18.73;13.27;;;;;;;3.09;100.00;94018.63;5069929;28;20048;-74
2022/10/21 06:28:31;;;;;;;17.15;12.63;;;;;;;3.36;100.00;94034.75;5070418;28;20076;-74
2022/10/21 06:30:58;;;;;;;16.17;11.75;;;;;;;3.53;100.00;94038.25;5069390;28;20048;-74
2022/10/21 06:33:26;;;;;;;17.27;13.32;;;;;;;3.80;100.00;94039.88;5070127;28;20048;-74
2022/10/21 06:35:53;;;;;;;19.38;13.98;;;;;;;4.01;100.00;94039.56;5070075;28;20058;-74
2022/10/21 06:38:20;;;;;;;16.92;13.50;;;;;;;4.14;100.00;94036.66;5069872;28;20105;-74
2022/10/21 06:40:47;;;;;;;15.57;12.93;;;;;;;4.32;100.00;94037.53;5070083;28;20093;-74
2022/10/21 06:43:14;;;;;;;22.75;15.57;;;;;;;4.44;100.00;94035.53;5069875;28;20070;-74
2022/10/21 06:45:41;;;;;;;30.45;20.25;;;;;;;4.57;100.00;94022.41;5070057;28;20382;-74
2022/10/21 06:48:07;;;;;;;19.10;13.35;;;;;;;4.72;100.00;94032.81;5069587;28;20629;-74
2022/10/21 06:50:37;;;;;;;15.02;10.65;;;;;;;4.68;100.00;94033.09;5069743;28;20048;-74
2022/10/21 06:53:04;;;;;;;19.88;13.55;;;;;;;4.88;100.00;94029.50;5069631;28;20048;-74
2022/10/21 06:55:31;;;;;;;16.50;12.30;;;;;;;5.04;100.00;94042.31;5069554;28;20090;-74
2022/10/21 06:57:59;;;;;;;22.63;13.27;;;;;;;5.23;100.00;94035.34;5069796;28;20136;-74
2022/10/21 07:00:25;;;;;;;23.48;13.35;;;;;;;5.38;100.00;94035.56;5069311;28;20500;-74
2022/10/21 07:02:52;;;;;;;27.77;19.10;;;;;;;5.53;100.00;94035.72;5069412;28;20052;-74
2022/10/21 07:05:19;;;;;;;20.60;13.25;;;;;;;5.55;100.00;94036.34;5069586;28;20041;-74
2022/10/21 07:07:47;;;;;;;19.08;12.75;;;;;;;5.61;100.00;94033.16;5069470;28;20455;-74
2022/10/21 07:10:14;;;;;;;21.95;14.73;;;;;;;5.80;100.00;94045.78;5069178;28;20044;-74
2022/10/21 07:12:40;;;;;;;24.13;17.27;;;;;;;5.86;100.00;94037.47;5069641;28;20048;-74
2022/10/21 07:15:08;;;;;;;21.65;16.42;;;;;;;5.98;100.00;94038.75;5069244;28;20045;-74
2022/10/21 07:17:35;;;;;;;27.02;15.52;;;;;;;5.89;100.00;94037.19;5069151;28;20447;-75
2022/10/21 07:20:01;;;;;;;29.38;16.73;;;;;;;5.92;100.00;94044.50;5069261;28;20106;-74
2022/10/21 07:22:28;;;;;;;23.73;14.93;;;;;;;6.07;100.00;94042.13;5069034;28;20045;-74
2022/10/21 07:24:56;;;;;;;27.40;16.77;;;;;;;6.28;100.00;94046.72;5069190;28;20044;-74
2022/10/21 07:27:23;;;;;;;21.77;14.27;;;;;;;6.41;100.00;94037.78;5068888;28;20056;-74
2022/10/21 07:29:50;;;;;;;30.75;18.98;;;;;;;6.65;100.00;94033.56;5069336;28;20094;-74
2022/10/21 07:32:16;;;;;;;33.10;18.83;;;;;;;6.91;100.00;94035.84;5069396;28;20060;-74
2022/10/21 07:34:43;;;;;;;34.13;20.73;;;;;;;7.13;100.00;94030.19;5068863;28;20500;-74
2022/10/21 07:37:10;;;;;;;36.97;20.27;;;;;;;7.29;100.00;94029.28;5068978;28;20044;-75
2022/10/21 07:39:37;;;;;;;41.45;23.73;;;;;;;7.44;100.00;94039.56;5069234;28;20041;-74
2022/10/21 07:42:05;;;;;;;33.67;18.83;;;;;;;7.55;100.00;94036.63;5068724;28;20056;-75
2022/10/21 07:44:32;;;;;;;30.27;17.75;;;;;;;7.79;100.00;94032.31;5057873;28;20516;-75
2022/10/21 07:46:58;;;;;;;30.90;16.55;;;;;;;7.96;100.00;94035.53;5068827;28;20045;-75
2022/10/21 07:49:25;;;;;;;30.88;16.95;;;;;;;8.00;100.00;94035.97;5068546;28;20097;-74
2022/10/21 07:51:53;;;;;;;27.98;17.58;;;;;;;8.18;100.00;94038.22;5069387;28;20048;-74
2022/10/21 07:54:20;;;;;;;23.20;14.45;;;;;;;8.32;100.00;94031.53;5069081;28;20420;-75
2022/10/21 07:56:49;;;;;;;24.10;13.45;;;;;;;8.54;100.00;94036.81;5068553;28;20078;-75
2022/10/21 07:59:20;;;;;;;25.77;13.48;;;;;;;8.78;100.00;94033.19;5068777;28;20090;-75
2022/10/21 08:01:47;;;;;;;24.15;13.05;;;;;;;8.84;100.00;94008.59;5068524;28;20052;-75
2022/10/21 08:04:16;;;;;;;19.48;12.75;;;;;;;9.10;100.00;94035.53;5068880;28;20151;-75
2022/10/21 08:06:47;;;;;;;22.92;14.02;;;;;;;9.14;100.00;94031.63;5068584;28;21578;-75
2022/10/21 08:09:15;;;;;;;22.90;13.85;;;;;;;9.29;100.00;94015.41;5068980;28;20455;-75
2022/10/21 08:11:41;;;;;;;30.65;14.30;;;;;;;9.55;100.00;94021.78;5068978;28;20106;-75
2022/10/21 08:14:10;;;;;;;21.63;14.20;;;;;;;9.76;100.00;93996.13;5068512;28;20135;-75
2022/10/21 08:16:38;;;;;;;28.30;15.52;;;;;;;10.08;96.57;94012.94;5068522;28;20489;-75
2022/10/21 08:19:06;;;;;;;29.00;14.95;;;;;;;10.26;95.13;94017.63;5068728;28;20090;-75
2022/10/21 08:21:33;;;;;;;28.98;13.75;;;;;;;10.50;95.49;94015.63;5068522;28;20040;-75
2022/10/21 08:24:02;;;;;;;21.15;12.95;;;;;;;10.76;96.10;94019.31;5068315;28;20049;-75
2022/10/21 08:26:29;;;;;;;24.35;13.20;;;;;;;10.99;94.58;94020.81;5068816;28;20040;-75
2022/10/21 08:28:55;;;;;;;26.23;14.02;;;;;;;10.66;90.66;94017.09;5068809;28;20052;-75
2022/10/21 08:31:22;;;;;;;22.73;12.93;;;;;;;10.52;91.03;94014.44;5054247;28;20094;-74
2022/10/21 08:33:51;;;;;;;24.30;13.30;;;;;;;10.28;92.75;94018.25;5068634;28;20048;-75
2022/10/21 08:36:20;;;;;;;24.60;12.93;;;;;;;10.53;91.80;94010.13;5068961;28;20040;-75
2022/10/21 08:38:47;;;;;;;20.85;13.05;;;;;;;10.87;95.01;94008.50;5068454;28;20417;-75
2022/10/21 08:41:38;;;;;;;21.90;11.80;;;;;;;11.06;92.39;94013.94;5068570;28;20101;-75
2022/10/21 08:44:10;;;;;;;23.95;12.23;;;;;;;11.16;90.73;94016.91;5068269;28;20045;-75
2022/10/21 08:46:42;;;;;;;26.30;12.93;;;;;;;11.41;90.30;94006.09;5068460;28;20040;-75
2022/10/21 08:49:16;;;;;;;29.67;13.75;;;;;;;11.69;91.20;93994.06;5068500;28;20060;-76
2022/10/21 08:51:49;;;;;;;25.17;11.95;;;;;;;12.02;87.75;94006.97;5068118;28;20657;-75
2022/10/21 08:54:22;;;;;;;24.42;11.48;;;;;;;12.24;86.78;94008.56;5069413;28;20053;-75
2022/10/21 08:56:51;;;;;;;22.95;11.20;;;;;;;12.41;86.56;93998.63;5072410;28;20040;-75
2022/10/21 08:59:20;;;;;;;23.48;10.25;;;;;;;12.61;85.25;94000.38;5072097;28;20090;-75
2022/10/21 09:01:55;;;;;;;25.63;11.50;;;;;;;12.68;81.86;93995.97;5072026;28;20048;-75
2022/10/21 09:04:33;;;;;;;20.95;9.15;;;;;;;12.89;82.76;93988.97;5072011;28;20094;-75
2022/10/21 09:07:07;;;;;;;21.92;10.80;;;;;;;13.04;82.13;93991.28;5071940;28;20044;-75
2022/10/21 09:09:43;;;;;;;25.35;12.50;;;;;;;13.28;84.15;93974.31;5071667;28;20497;-75
2022/10/21 09:12:20;;;;;;;19.80;9.60;;;;;;;13.52;80.66;93978.97;5071718;28;20060;-75
2022/10/21 09:15:06;;;;;;;27.95;12.02;;;;;;;13.72;80.19;93964.16;5071453;28;20048;-75
2022/10/21 09:18:05;;;;;;;24.15;9.82;;;;;;;13.90;79.70;93963.38;5071577;28;20051;-76
2022/10/21 09:20:48;;;;;;;23.73;10.23;;;;;;;13.96;78.89;93963.53;5071259;28;20502;-76
2022/10/21 09:23:39;;;;;;;26.35;9.07;;;;;;;14.26;77.04;93966.25;5071728;28;20052;-75
2022/10/21 09:26:15;;;;;;;17.55;8.90;;;;;;;14.37;77.45;93961.38;5068098;28;20114;-75
2022/10/21 09:28:42;;;;;;;47.25;26.52;;;;;;;14.63;78.74;93959.53;5071631;28;20479;-75
2022/10/21 09:31:15;;;;;;;24.40;11.77;;;;;;;14.88;77.46;93966.44;5071260;28;20048;-75
2022/10/21 09:33:46;;;;;;;21.02;9.85;;;;;;;15.10;76.50;93964.97;5071052;28;20053;-75
2022/10/21 09:36:19;;;;;;;220.25;95.13;;;;;;;15.34;74.89;93966.84;5071201;28;20048;-75
2022/10/21 09:38:52;;;;;;;40.78;19.55;;;;;;;15.45;72.97;93957.53;5071366;28;20041;-74
2022/10/21 09:41:22;;;;;;;81.65;34.70;;;;;;;15.68;70.92;93972.34;5071148;28;20044;-75
2022/10/21 09:43:49;;;;;;;86.07;36.05;;;;;;;15.84;70.40;93972.72;5071169;28;20061;-75
2022/10/21 09:46:17;;;;;;;80.00;33.35;;;;;;;15.98;68.80;93978.50;5070977;28;20044;-74
2022/10/21 09:48:46;;;;;;;26.60;13.35;;;;;;;16.07;67.21;93978.97;5071139;28;20045;-75
2022/10/21 09:51:19;;;;;;;147.57;59.42;;;;;;;16.24;67.88;93974.69;5071181;28;20044;-74
2022/10/21 09:53:50;;;;;;;49.33;27.42;;;;;;;16.35;67.36;93980.09;5070793;28;20566;-74
2022/10/21 09:56:20;;;;;;;31.27;18.10;;;;;;;16.45;67.32;93977.72;5071072;28;20052;-74
2022/10/21 09:58:51;;;;;;;34.47;20.27;;;;;;;16.60;66.02;93979.84;5070975;28;20070;-74
2022/10/21 10:01:20;;;;;;;14.38;8.55;;;;;;;16.67;64.18;93977.91;5070901;28;20052;-74
2022/10/21 10:03:49;;;;;;;8.75;6.13;;;;;;;16.65;64.98;93961.78;5068344;28;20048;-75
2022/10/21 10:06:32;;;;;;;10.15;5.72;;;;;;;16.74;64.72;93971.78;5068231;28;20118;-74
2022/10/21 10:09:14;;;;;;;10.40;6.05;;;;;;;16.83;64.27;93960.84;5069670;28;20060;-74
2022/10/21 10:11:53;;;;;;;42.50;23.45;;;;;;;16.94;63.88;93958.47;5070451;28;20046;-74
2022/10/21 10:14:26;;;;;;;14.60;9.20;;;;;;;16.93;62.80;93962.84;5070620;28;20044;-74
2022/10/21 10:16:53;;;;;;;15.45;8.07;;;;;;;16.95;62.81;93960.81;5070744;28;20052;-74
2022/10/21 10:19:22;;;;;;;20.60;11.15;;;;;;;17.01;61.28;93963.50;5070657;28;20040;-74
2022/10/21 10:22:08;;;;;;;8.18;5.30;;;;;;;17.00;61.34;93944.56;5070576;28;20094;-74
2022/10/21 10:24:35;;;;;;;10.40;5.88;;;;;;;17.21;60.56;93960.50;5070187;28;20041;-74
2022/10/21 10:27:04;;;;;;;7.55;5.18;;;;;;;17.30;60.89;93960.91;5070247;28;20055;-74
2022/10/21 10:29:33;;;;;;;6.43;4.15;;;;;;;17.41;60.42;93954.13;5070273;28;20044;-74
2022/10/21 10:32:01;;;;;;;6.40;3.50;;;;;;;17.47;58.49;93953.97;5070343;28;20049;-75
2022/10/21 10:34:33;;;;;;;8.25;3.85;;;;;;;17.49;58.29;93940.72;5070460;28;20040;-75
2022/10/21 10:37:06;;;;;;;14.05;5.10;;;;;;;17.65;58.46;93941.78;5069985;28;20048;-75
2022/10/21 10:39:36;;;;;;;8.80;3.80;;;;;;;17.69;58.13;93939.50;5070087;28;20040;-75
2022/10/21 10:42:03;;;;;;;7.47;4.10;;;;;;;17.81;58.14;93929.81;5069753;28;20117;-75
2022/10/21 10:44:35;;;;;;;8.05;4.03;;;;;;;17.93;57.93;93928.94;5069925;28;20045;-75
2022/10/21 10:47:21;;;;;;;8.45;4.22;;;;;;;17.93;56.25;93921.13;5070087;28;20471;-74
2022/10/21 10:49:50;;;;;;;5.43;3.78;;;;;;;17.97;57.02;93917.81;5069688;28;20102;-74
2022/10/21 10:52:23;;;;;;;5.38;3.88;;;;;;;17.75;55.75;93913.38;5069729;28;20135;-74
2022/10/21 10:55:17;;;;;;;7.07;4.32;;;;;;;17.86;57.10;93897.91;5069554;28;20083;-75
2022/10/21 10:57:48;;;;;;;5.97;3.75;;;;;;;17.97;57.57;93910.03;5069648;28;20048;-74
2022/10/21 11:00:18;;;;;;;7.30;4.85;;;;;;;17.97;56.75;93898.84;5070012;28;20052;-74
2022/10/21 11:02:53;;;;;;;4.65;3.83;;;;;;;17.94;54.65;93899.31;5069760;28;20049;-75
2022/10/21 11:05:24;;;;;;;5.95;3.58;;;;;;;18.03;56.32;93896.09;5069774;28;20044;-75
2022/10/21 11:07:55;;;;;;;5.60;3.60;;;;;;;17.98;55.86;93877.03;5069618;28;20098;-75
2022/10/21 11:10:32;;;;;;;8.30;4.65;;;;;;;18.01;51.99;93887.72;5069441;28;20440;-74
2022/10/21 11:12:59;;;;;;;6.93;4.05;;;;;;;18.10;54.78;93875.13;5069575;28;20042;-75
2022/10/21 11:15:35;;;;;;;6.97;3.75;;;;;;;18.19;54.33;93880.72;5069595;28;20109;-75
2022/10/21 11:18:11;;;;;;;8.90;4.00;;;;;;;18.21;55.20;93875.28;5069727;28;20106;-75
2022/10/21 11:20:41;;;;;;;;;;;;;;;18.41;52.69;93885.94;5069877;28;20044;-75
2022/10/21 11:23:29;;;;;;;7.63;4.47;;;;;;;18.38;53.31;93883.03;5068982;28;19920;-75
2022/10/21 11:26:03;;;;;;;8.32;4.70;;;;;;;18.46;53.85;93879.22;5068908;28;20478;-75
2022/10/21 11:28:37;;;;;;;7.75;4.88;;;;;;;18.45;52.68;93870.63;5069337;28;20052;-75
2022/10/21 11:31:17;;;;;;;8.63;3.90;;;;;;;18.51;51.55;93869.66;5068732;28;20455;-75
2022/10/21 11:33:51;;;;;;;7.88;4.43;;;;;;;18.45;51.04;93857.63;5069071;28;20075;-75